createdAt,value
2022-11-29T00:04:37.887Z,103458.91
2022-11-29T00:09:41.021Z,103457.81
2022-11-29T00:14:44.536Z,103445.59
2022-11-29T00:19:47.662Z,103458.50
2022-11-29T00:24:50.573Z,103439.50
2022-11-29T00:29:53.474Z,103450.66
2022-11-29T00:34:59.386Z,103426.97
2022-11-29T00:40:02.950Z,103459.13
2022-11-29T00:45:06.960Z,103424.31
2022-11-29T00:50:10.133Z,103465.09
2022-11-29T00:55:13.008Z,103462.53
2022-11-29T01:00:16.520Z,103477.00
2022-11-29T01:05:19.414Z,103485.53
2022-11-29T01:10:22.507Z,103441.19
2022-11-29T01:15:25.720Z,103450.78
2022-11-29T01:20:28.823Z,103501.56
2022-11-29T01:25:32.421Z,103497.09
2022-11-29T01:30:37.521Z,103495.03
2022-11-29T01:35:40.553Z,103507.88
2022-11-29T01:40:43.693Z,103456.69
2022-11-29T01:45:46.712Z,103465.41
2022-11-29T01:50:49.806Z,103498.94
2022-11-29T01:55:58.079Z,103505.91
2022-11-29T02:01:01.691Z,103505.75
2022-11-29T02:06:05.491Z,103496.84
2022-11-29T02:11:27.063Z,103500.47
2022-11-29T02:16:33.075Z,103503.81
2022-11-29T02:22:03.085Z,103473.22
2022-11-29T02:27:43.019Z,103507.19
2022-11-29T02:33:23.290Z,103499.56
2022-11-29T02:38:46.786Z,103479.34
2022-11-29T02:44:28.273Z,103503.72
2022-11-29T02:50:01.339Z,103510.59
2022-11-29T02:55:16.493Z,103512.34
2022-11-29T03:00:21.236Z,103514.91
2022-11-29T03:05:45.027Z,103519.56
2022-11-29T03:10:50.749Z,103525.75
2022-11-29T03:16:05.929Z,103525.59
2022-11-29T03:21:19.739Z,103541.03
2022-11-29T03:26:48.829Z,103557.34
2022-11-29T03:32:01.883Z,103557.19
2022-11-29T03:37:17.796Z,103526.50
2022-11-29T03:42:33.231Z,103534.63
2022-11-29T03:47:43.049Z,103561.31
2022-11-29T03:53:08.112Z,103565.47
2022-11-29T03:58:32.684Z,103569.94
2022-11-29T04:04:04.492Z,103545.38
2022-11-29T04:09:28.269Z,103587.25
2022-11-29T04:14:49.379Z,103591.53
2022-11-29T04:20:10.898Z,103588.94
2022-11-29T04:25:22.858Z,103573.88
2022-11-29T04:30:27.833Z,103598.94
2022-11-29T04:35:54.225Z,103601.88
2022-11-29T04:41:09.452Z,103613.78
2022-11-29T04:46:37.032Z,103621.88
2022-11-29T04:52:06.117Z,103621.41
2022-11-29T04:57:17.899Z,103628.66
2022-11-29T05:02:41.873Z,103631.19
2022-11-29T05:08:23.002Z,103632.00
2022-11-29T05:13:42.679Z,103639.88
2022-11-29T05:19:02.030Z,103656.28
2022-11-29T05:24:18.275Z,103656.31
2022-11-29T05:29:39.576Z,103640.03
2022-11-29T05:34:57.376Z,103665.22
2022-11-29T05:40:44.448Z,103667.53
2022-11-29T05:45:58.270Z,103658.94
2022-11-29T05:51:23.187Z,103667.06
2022-11-29T05:59:27.995Z,103653.91
2022-11-29T06:05:04.913Z,103654.97
2022-11-29T06:10:21.563Z,103666.41
2022-11-29T06:15:50.662Z,103672.16
2022-11-29T06:21:18.102Z,103634.00
2022-11-29T06:26:40.985Z,103665.22
2022-11-29T06:31:48.623Z,103665.19
2022-11-29T06:37:02.750Z,103660.94
2022-11-29T06:42:05.721Z,103651.09
2022-11-29T06:47:39.594Z,103674.59
2022-11-29T06:53:01.217Z,103693.44
2022-11-29T06:58:09.631Z,103683.34
2022-11-29T07:03:32.489Z,103674.91
2022-11-29T07:08:35.764Z,103667.38
2022-11-29T07:13:39.058Z,103673.50
2022-11-29T07:18:51.203Z,103673.19
2022-11-29T07:24:05.232Z,103647.00
2022-11-29T07:29:27.254Z,103658.25
2022-11-29T07:35:02.757Z,103671.44
2022-11-29T07:40:40.662Z,103675.00
2022-11-29T07:45:43.692Z,103650.34
2022-11-29T07:50:47.039Z,103664.34
2022-11-29T07:55:50.960Z,103662.34
2022-11-29T08:00:53.961Z,103670.88
2022-11-29T08:05:57.648Z,103666.50
2022-11-29T08:11:00.849Z,103661.84
2022-11-29T08:16:05.161Z,103671.38
2022-11-29T08:21:08.485Z,103643.31
2022-11-29T08:26:11.528Z,103677.13
2022-11-29T08:31:14.551Z,103667.59
2022-11-29T08:36:20.629Z,103663.69
2022-11-29T08:41:23.701Z,103664.41
2022-11-29T08:46:46.688Z,103656.25
2022-11-29T08:51:53.545Z,103653.94
2022-11-29T08:57:31.491Z,103664.28
2022-11-29T09:02:20.767Z,103671.22
2022-11-29T09:07:23.813Z,103660.00
2022-11-29T09:12:26.768Z,103665.97
2022-11-29T09:17:29.668Z,103661.63
2022-11-29T09:22:32.608Z,103627.06
2022-11-29T09:27:35.703Z,103657.03
2022-11-29T09:32:38.616Z,103658.59
2022-11-29T09:37:44.652Z,103655.50
2022-11-29T09:43:21.167Z,103648.03
2022-11-29T09:48:59.618Z,103632.91
2022-11-29T09:54:20.046Z,103624.91
2022-11-29T09:59:34.079Z,103612.78
2022-11-29T10:04:41.270Z,103625.66
2022-11-29T10:10:13.758Z,103622.50
2022-11-29T10:15:24.826Z,103626.81
2022-11-29T10:20:36.437Z,103618.06
2022-11-29T10:26:08.200Z,103617.69
2022-11-29T10:31:21.978Z,103623.50
2022-11-29T10:36:46.099Z,103580.09
2022-11-29T10:42:02.486Z,103574.09
2022-11-29T10:47:10.658Z,103612.00
2022-11-29T10:52:20.051Z,103603.50
2022-11-29T10:57:23.400Z,103606.56
2022-11-29T11:02:27.979Z,103614.13
2022-11-29T11:07:36.286Z,103603.69
2022-11-29T11:12:39.287Z,103615.66
2022-11-29T11:17:56.694Z,103618.97
2022-11-29T11:23:02.711Z,103617.81
2022-11-29T11:28:20.780Z,103614.28
2022-11-29T11:33:30.293Z,103607.50
2022-11-29T11:38:35.128Z,103600.59
2022-11-29T11:43:38.964Z,103609.16
2022-11-29T11:48:42.690Z,103585.41
2022-11-29T11:53:51.491Z,103622.53
2022-11-29T11:58:57.644Z,103636.94
2022-11-29T12:04:30.914Z,103634.00
2022-11-29T12:09:49.360Z,103648.59
2022-11-29T12:14:56.777Z,103657.19
2022-11-29T12:20:10.346Z,103621.41
2022-11-29T12:25:19.829Z,103626.75
2022-11-29T12:30:22.867Z,103664.16
2022-11-29T12:36:09.268Z,103679.16
2022-11-29T12:41:29.988Z,103667.84
2022-11-29T12:46:34.503Z,103668.38
2022-11-29T12:52:06.285Z,103667.03
2022-11-29T12:57:15.352Z,103634.00
2022-11-29T13:02:30.396Z,103668.44
2022-11-29T13:07:45.162Z,103684.81
2022-11-29T13:13:23.948Z,103698.03
2022-11-29T13:18:27.154Z,103690.28
2022-11-29T13:24:00.715Z,103686.84
2022-11-29T13:29:02.723Z,103689.41
2022-11-29T13:34:08.774Z,103679.75
2022-11-29T13:39:40.820Z,103716.22
2022-11-29T13:44:57.111Z,103712.72
2022-11-29T13:50:04.313Z,103700.53
2022-11-29T13:55:29.339Z,103703.06
2022-11-29T14:00:51.278Z,103701.31
2022-11-29T14:06:05.173Z,103715.06
2022-11-29T14:11:37.702Z,103716.69
2022-11-29T14:16:43.544Z,103714.84
2022-11-29T14:22:07.496Z,103718.13
2022-11-29T14:27:13.152Z,103732.66
2022-11-29T14:32:35.831Z,103734.41
2022-11-29T14:38:04.281Z,103742.97
2022-11-29T14:43:30.292Z,103744.63
2022-11-29T14:48:34.623Z,103765.13
2022-11-29T14:53:39.412Z,103726.06
2022-11-29T14:58:42.500Z,103764.09
2022-11-29T15:03:50.112Z,103742.19
2022-11-29T15:09:04.585Z,103758.72
2022-11-29T15:14:19.144Z,103767.13
2022-11-29T15:19:49.217Z,103778.28
2022-11-29T15:25:06.036Z,103786.19
2022-11-29T15:30:39.384Z,103757.19
2022-11-29T15:35:50.146Z,103782.81
2022-11-29T15:40:55.535Z,103796.94
2022-11-29T15:45:59.217Z,103792.41
2022-11-29T15:51:17.086Z,103775.78
2022-11-29T15:56:29.037Z,103809.56
2022-11-29T16:01:33.288Z,103813.94
2022-11-29T16:06:42.357Z,103807.69
2022-11-29T16:11:46.986Z,103823.22
2022-11-29T16:16:52.871Z,103822.81
2022-11-29T16:22:21.511Z,103842.75
2022-11-29T16:27:25.237Z,103812.09
2022-11-29T16:32:29.652Z,103846.97
2022-11-29T16:37:39.901Z,103850.19
2022-11-29T16:42:48.975Z,103807.50
2022-11-29T16:47:59.749Z,103844.72
2022-11-29T16:53:35.510Z,103843.00
2022-11-29T16:59:25.150Z,103850.38
2022-11-29T17:04:03.272Z,103862.44
2022-11-29T17:09:06.514Z,103849.31
2022-11-29T17:14:10.027Z,103826.41
2022-11-29T17:19:13.723Z,103854.44
2022-11-29T17:24:19.689Z,103857.16
2022-11-29T17:29:22.649Z,103863.88
2022-11-29T17:34:25.727Z,103868.94
2022-11-29T17:39:28.732Z,103874.66
2022-11-29T17:44:34.210Z,103854.59
2022-11-29T17:49:37.124Z,103868.72
2022-11-29T17:54:40.287Z,103876.09
2022-11-29T17:59:43.478Z,103868.81
2022-11-29T18:04:46.665Z,103886.78
2022-11-29T18:09:49.606Z,103868.78
2022-11-29T18:14:52.531Z,103869.28
2022-11-29T18:19:55.564Z,103878.19
2022-11-29T18:25:22.683Z,103875.31
2022-11-29T18:30:21.464Z,103891.81
2022-11-29T18:35:24.384Z,103904.28
2022-11-29T18:40:27.390Z,103860.63
2022-11-29T18:45:30.910Z,103894.59
2022-11-29T18:50:33.935Z,103879.84
2022-11-29T18:55:37.465Z,103891.09
2022-11-29T19:00:41.165Z,103860.06
2022-11-29T19:05:52.913Z,103888.38
2022-11-29T19:10:55.982Z,103888.13
2022-11-29T19:15:58.968Z,103883.41
2022-11-29T19:21:11.705Z,103876.38
2022-11-29T19:26:15.878Z,103890.63
2022-11-29T19:31:20.929Z,103883.72
2022-11-29T19:36:27.291Z,103863.19
2022-11-29T19:41:35.196Z,103893.56
2022-11-29T19:46:41.525Z,103861.97
2022-11-29T19:51:44.541Z,103893.22
2022-11-29T19:56:47.602Z,103893.69
2022-11-29T20:01:50.756Z,103905.84
2022-11-29T20:06:54.943Z,103876.88
2022-11-29T20:11:57.828Z,103876.09
2022-11-29T20:17:00.710Z,103873.41
2022-11-29T20:22:03.761Z,103916.41
2022-11-29T20:27:07.242Z,103882.97
2022-11-29T20:32:10.164Z,103904.84
2022-11-29T20:37:22.104Z,103912.78
2022-11-29T20:42:52.565Z,103914.94
2022-11-29T20:48:13.607Z,103924.94
2022-11-29T20:53:36.585Z,103922.25
2022-11-29T20:58:40.266Z,103936.03
2022-11-29T21:03:43.408Z,103876.06
2022-11-29T21:08:46.654Z,103915.88
2022-11-29T21:13:49.915Z,103888.63
2022-11-29T21:18:58.584Z,103915.63
2022-11-29T21:24:05.715Z,103931.84
2022-11-29T21:29:20.135Z,103941.69
2022-11-29T21:34:23.032Z,103894.97
2022-11-29T21:39:34.325Z,103939.28
2022-11-29T21:44:37.248Z,103934.22
2022-11-29T21:49:40.467Z,103923.28
2022-11-29T21:54:43.819Z,103936.09
2022-11-29T21:59:46.947Z,103906.84
2022-11-29T22:04:50.123Z,103921.00
2022-11-29T22:09:53.101Z,103926.81
2022-11-29T22:14:55.987Z,103913.06
2022-11-29T22:19:58.902Z,103921.53
2022-11-29T22:25:01.892Z,103915.81
2022-11-29T22:30:07.096Z,103919.84
2022-11-29T22:35:10.177Z,103912.56
2022-11-29T22:40:13.396Z,103918.47
2022-11-29T22:45:16.349Z,103901.34
2022-11-29T22:50:19.369Z,103912.72
2022-11-29T22:55:22.302Z,103895.28
2022-11-29T23:00:25.519Z,103916.28
2022-11-29T23:05:32.231Z,103887.41
2022-11-29T23:10:35.583Z,103919.56
2022-11-29T23:15:38.705Z,103915.53
2022-11-29T23:20:41.777Z,103917.59
2022-11-29T23:25:49.728Z,103907.97
2022-11-29T23:30:54.516Z,103913.28
2022-11-29T23:36:06.754Z,103923.06
2022-11-29T23:41:10.215Z,103879.63
2022-11-29T23:46:20.636Z,103909.84
2022-11-29T23:51:23.684Z,103906.09
2022-11-29T23:56:26.820Z,103877.91
